Time;durP1;ratioP1;P1;durP2;ratioP2;P2;SDS_P1;SDS_P2;PMS_P1;PMS_P2;Temp;Humidity;BMP_temperature;BMP_pressure;BME280_temperature;BME280_humidity;BME280_pressure;Samples;Min_cycle;Max_cycle;Signal;HPM_P1;HPM_P2
2022/04/20 04:01:09;;;;;;;8.87;4.20;;;;;;;;;;5667421;22;20543;-77
2022/04/20 04:03:35;;;;;;;6.30;4.80;;;-3.10;96.30;;;;;;4993450;28;20920;-77
2022/04/20 04:06:01;;;;;;;7.67;4.03;;;;;;;;;;4993887;28;20939;-78
2022/04/20 04:08:27;;;;;;;9.10;4.67;;;;;;;;;;4975806;28;20409;-76
2022/04/20 04:10:52;;;;;;;5.27;4.77;;;-3.10;96.30;;;;;;4993631;28;20224;-76
2022/04/20 04:13:19;;;;;;;4.60;4.20;;;-3.00;96.30;;;;;;4993810;28;20577;-76
2022/04/20 04:15:44;;;;;;;9.27;5.77;;;-2.90;96.30;;;;;;4976653;28;20174;-78
2022/04/20 04:18:10;;;;;;;9.60;5.37;;;-2.90;96.30;;;;;;4977107;28;20831;-77
2022/04/20 04:28:22;;;;;;;8.10;5.90;;;;;;;;;;5094303;22;20538;-76
2022/04/20 04:30:48;;;;;;;8.80;5.63;;;-2.70;96.30;;;;;;4993241;28;20424;-76
2022/04/20 04:33:14;;;;;;;6.60;5.60;;;-2.70;96.30;;;;;;4993303;28;20970;-76
2022/04/20 04:35:39;;;;;;;7.40;5.70;;;-2.70;96.30;;;;;;4993339;28;20260;-76
2022/04/20 04:38:05;;;;;;;6.60;5.07;;;-2.60;96.30;;;;;;4975299;28;20201;-76
2022/04/20 04:40:31;;;;;;;7.70;6.47;;;-2.70;96.30;;;;;;4993159;28;20227;-76
2022/04/20 04:42:56;;;;;;;9.93;5.57;;;-2.70;96.30;;;;;;4993192;28;20683;-76
2022/04/20 04:50:50;;;;;;;8.00;5.73;;;-2.50;96.30;;;;;;4993355;28;20448;-77
2022/04/20 04:53:16;;;;;;;7.97;6.03;;;-2.40;96.30;;;;;;4992984;28;20479;-76
2022/04/20 04:55:41;;;;;;;7.70;6.23;;;-2.30;96.30;;;;;;4992942;28;20257;-77
2022/04/20 04:58:06;;;;;;;8.83;5.93;;;-2.30;96.30;;;;;;4993549;28;20260;-76
2022/04/20 05:00:32;;;;;;;6.70;6.00;;;-2.10;96.30;;;;;;4994458;28;20194;-76
2022/04/20 05:02:58;;;;;;;9.80;6.40;;;-1.90;96.30;;;;;;4977294;28;20182;-78
2022/04/20 05:05:23;;;;;;;7.47;5.30;;;-1.60;96.30;;;;;;4996177;28;20182;-77
2022/04/20 05:07:54;;;;;;;11.13;7.37;;;-1.50;96.30;;;;;;4995795;28;20241;-76
2022/04/20 05:10:21;;;;;;;12.20;7.00;;;-1.30;96.30;;;;;;4993522;28;20779;-77
2022/04/20 05:12:47;;;;;;;10.03;6.17;;;-1.20;96.30;;;;;;4991099;28;20794;-79
2022/04/20 05:15:13;;;;;;;11.60;6.43;;;-1.20;96.30;;;;;;4992471;28;20429;-78
2022/04/20 05:17:38;;;;;;;7.63;5.83;;;-1.00;96.30;;;;;;4997512;28;20416;-78
2022/04/20 05:20:04;;;;;;;8.67;6.97;;;-0.70;96.30;;;;;;4993409;28;20209;-77
2022/04/20 05:22:30;;;;;;;9.00;7.80;;;-0.60;96.30;;;;;;4981823;28;20205;-77
2022/04/20 05:24:55;;;;;;;12.23;7.80;;;-0.40;96.30;;;;;;4956613;28;20475;-77
2022/04/20 05:27:21;;;;;;;9.63;7.57;;;-0.20;96.30;;;;;;4956481;28;20194;-78
2022/04/20 05:29:46;;;;;;;9.10;6.90;;;0.00;96.30;;;;;;4976675;28;20179;-76
2022/04/20 05:32:12;;;;;;;27.73;15.17;;;0.10;96.30;;;;;;4981007;28;20596;-78
2022/04/20 05:34:38;;;;;;;9.00;7.10;;;0.20;96.30;;;;;;4980714;28;20173;-77
2022/04/20 05:42:32;;;;;;;11.10;7.13;;;0.40;96.30;;;;;;4993968;28;20439;-76
2022/04/20 05:44:58;;;;;;;10.10;7.03;;;;;;;;;;5006109;28;20428;-79
2022/04/20 05:47:23;;;;;;;8.67;7.43;;;0.70;96.30;;;;;;4999839;28;20177;-76
2022/04/20 05:49:49;;;;;;;8.77;7.03;;;0.90;96.30;;;;;;5016227;28;20209;-78
2022/04/20 05:52:14;;;;;;;9.00;7.30;;;1.00;96.30;;;;;;5016079;28;20205;-76
2022/04/20 05:54:40;;;;;;;12.67;6.73;;;1.20;96.30;;;;;;4991840;28;20236;-77
2022/04/20 05:57:05;;;;;;;14.73;7.57;;;2.40;96.30;;;;;;4979425;28;20170;-79
2022/04/20 05:59:31;;;;;;;12.53;9.63;;;;;;;;;;4980724;28;20166;-78
2022/04/20 06:01:57;;;;;;;13.20;8.93;;;5.50;96.30;;;;;;4982147;28;20208;-79
2022/04/20 06:04:23;;;;;;;9.37;7.83;;;6.90;96.30;;;;;;4999553;28;20413;-80
2022/04/20 06:06:49;;;;;;;8.10;6.43;;;8.20;96.30;;;;;;5001660;28;20188;-80
2022/04/20 06:09:14;;;;;;;11.23;7.43;;;8.60;96.10;;;;;;4981336;28;20775;-81
2022/04/20 06:11:41;;;;;;;9.30;6.60;;;9.00;95.10;;;;;;4996007;28;20220;-82
2022/04/20 06:14:07;;;;;;;7.83;6.90;;;8.50;96.30;;;;;;4979735;28;20246;-78
2022/04/20 06:16:32;;;;;;;8.53;7.20;;;8.90;94.30;;;;;;4997865;28;20940;-77
2022/04/20 06:18:58;;;;;;;7.90;5.97;;;7.80;96.30;;;;;;4996857;28;20257;-78
2022/04/20 06:21:23;;;;;;;15.37;7.27;;;6.90;96.30;;;;;;4996226;28;20604;-79
2022/04/20 06:23:49;;;;;;;7.93;6.10;;;6.40;96.30;;;;;;4996127;28;20189;-77
2022/04/20 06:26:14;;;;;;;7.20;5.87;;;5.90;96.30;;;;;;4995535;28;20240;-77
2022/04/20 06:28:40;;;;;;;9.10;6.90;;;5.10;96.30;;;;;;4977658;28;20177;-77
2022/04/20 06:31:06;;;;;;;7.07;6.10;;;4.90;96.30;;;;;;4995307;28;20198;-76
2022/04/20 06:33:32;;;;;;;10.67;7.37;;;4.50;96.30;;;;;;4978008;28;20495;-77
2022/04/20 06:36:00;;;;;;;9.70;6.30;;;4.30;96.30;;;;;;4977900;28;20528;-76
2022/04/20 06:38:28;;;;;;;9.40;7.20;;;4.10;96.30;;;;;;4994858;28;20400;-78
2022/04/20 06:40:54;;;;;;;8.70;6.80;;;;;;;;;;4977053;28;20448;-77
2022/04/20 06:43:23;;;;;;;9.00;7.50;;;3.30;96.30;;;;;;4977537;28;20417;-76
2022/04/20 06:45:48;;;;;;;8.90;6.50;;;3.30;96.30;;;;;;4995916;28;20174;-79
2022/04/20 06:48:14;;;;;;;8.07;6.80;;;3.30;96.30;;;;;;4977560;28;20478;-76
2022/04/20 06:50:40;;;;;;;10.30;7.60;;;3.40;96.30;;;;;;4995736;28;20197;-78
2022/04/20 06:58:38;;;;;;;12.47;8.57;;;3.50;96.30;;;;;;4979182;28;20401;-79
2022/04/20 07:01:05;;;;;;;12.10;8.10;;;3.70;96.30;;;;;;4977978;28;20426;-79
2022/04/20 07:03:32;;;;;;;10.60;8.00;;;4.00;96.30;;;;;;4959123;28;20433;-77
2022/04/20 07:06:01;;;;;;;16.30;9.50;;;4.30;96.30;;;;;;4975510;28;20504;-77
2022/04/20 07:08:28;;;;;;;10.60;8.23;;;4.20;96.30;;;;;;4974931;28;20460;-77
2022/04/20 07:10:53;;;;;;;10.27;8.20;;;4.10;96.30;;;;;;4975292;28;20558;-77
2022/04/20 07:13:19;;;;;;;11.83;8.80;;;3.90;96.30;;;;;;4975294;28;20583;-76
2022/04/20 07:15:45;;;;;;;11.70;7.87;;;3.90;96.30;;;;;;4975279;28;20174;-76
2022/04/20 07:18:11;;;;;;;11.90;8.83;;;3.80;96.30;;;;;;4974666;28;20465;-76
2022/04/20 07:20:36;;;;;;;12.80;9.77;;;3.80;96.30;;;;;;4957709;28;20433;-75
2022/04/20 07:23:02;;;;;;;15.43;9.37;;;4.00;96.30;;;;;;4983199;28;20385;-76
2022/04/20 07:25:29;;;;;;;13.10;9.57;;;4.20;96.30;;;;;;4977010;28;20174;-77
2022/04/20 07:27:55;;;;;;;14.20;9.53;;;4.40;96.30;;;;;;4976401;28;20216;-76
2022/04/20 07:30:20;;;;;;;10.77;8.60;;;4.40;96.30;;;;;;4994316;28;20908;-77
2022/04/20 07:32:48;;;;;;;10.80;8.80;;;4.50;96.30;;;;;;4994271;28;20209;-76
2022/04/20 07:35:14;;;;;;;14.57;8.73;;;4.50;96.30;;;;;;4994480;28;20146;-75
2022/04/20 07:37:39;;;;;;;11.63;9.90;;;4.60;96.30;;;;;;4993941;28;20405;-74
2022/04/20 07:40:06;;;;;;;16.70;9.50;;;4.70;96.30;;;;;;4989794;28;20552;-77
2022/04/20 07:42:31;;;;;;;12.40;8.80;;;4.80;96.30;;;;;;4976656;28;20740;-78
2022/04/20 07:44:58;;;;;;;9.83;8.47;;;4.80;96.30;;;;;;4976727;28;20503;-77
2022/04/20 07:47:25;;;;;;;11.73;9.50;;;4.90;96.30;;;;;;4970521;28;20196;-78
2022/04/20 07:52:40;;;;;;;10.70;8.77;;;4.90;96.30;;;;;;4980084;28;21355;-77
2022/04/20 07:55:11;;;;;;;11.63;9.50;;;4.70;96.30;;;;;;4961244;28;20474;-77
2022/04/20 07:57:37;;;;;;;13.60;8.60;;;4.90;96.30;;;;;;4988068;28;20417;-77
2022/04/20 08:00:05;;;;;;;12.80;9.43;;;5.00;96.30;;;;;;4974373;28;20908;-78
2022/04/20 08:02:31;;;;;;;11.90;9.27;;;;;;;;;;4993701;28;20502;-77
2022/04/20 08:04:57;;;;;;;13.30;9.70;;;5.40;96.30;;;;;;5003382;28;20437;-78
2022/04/20 08:07:22;;;;;;;13.27;10.30;;;5.40;96.30;;;;;;4993809;28;20419;-77
2022/04/20 08:09:48;;;;;;;12.63;9.67;;;5.30;96.30;;;;;;4991713;28;20185;-77
2022/04/20 08:12:13;;;;;;;11.17;8.80;;;5.40;96.30;;;;;;4993497;28;20736;-77
2022/04/20 08:14:39;;;;;;;12.73;8.30;;;5.50;96.30;;;;;;4976215;28;20222;-77
2022/04/20 08:17:04;;;;;;;18.87;9.77;;;5.60;96.30;;;;;;4976233;28;20225;-77
2022/04/20 08:19:30;;;;;;;12.03;8.80;;;;;;;;;;4992979;28;20205;-78
2022/04/20 08:21:56;;;;;;;13.83;9.17;;;5.50;96.30;;;;;;4975603;28;20209;-77
2022/04/20 08:24:21;;;;;;;11.77;9.63;;;5.80;96.30;;;;;;4970497;28;20186;-79
2022/04/20 08:26:47;;;;;;;13.33;8.60;;;5.90;96.30;;;;;;4984484;28;20197;-78
2022/04/20 08:29:13;;;;;;;12.47;8.97;;;5.80;96.30;;;;;;4984536;28;20630;-78
2022/04/20 08:31:38;;;;;;;13.73;9.90;;;5.90;96.30;;;;;;4993188;28;20213;-78
2022/04/20 08:34:04;;;;;;;12.20;9.40;;;6.00;96.30;;;;;;4959533;28;20221;-77
2022/04/20 08:36:30;;;;;;;12.70;9.67;;;6.10;96.30;;;;;;4981746;28;20276;-78
2022/04/20 08:38:56;;;;;;;11.10;9.63;;;6.20;96.30;;;;;;4976099;28;20265;-77
2022/04/20 08:41:22;;;;;;;11.90;9.57;;;6.20;96.30;;;;;;4956571;28;20205;-78
2022/04/20 08:43:48;;;;;;;10.20;8.77;;;;;;;;;;4981578;28;20193;-78
2022/04/20 08:46:16;;;;;;;10.07;8.40;;;6.40;96.30;;;;;;4982758;28;20512;-77
2022/04/20 08:48:42;;;;;;;13.20;7.73;;;6.40;96.30;;;;;;4978872;28;20945;-77
2022/04/20 08:51:08;;;;;;;6.20;5.60;;;6.70;96.30;;;;;;4956165;28;20489;-77
2022/04/20 08:53:34;;;;;;;5.20;4.50;;;7.00;96.30;;;;;;4964263;28;20265;-77
2022/04/20 08:58:48;;;;;;;9.13;5.50;;;7.50;96.30;;;;;;5012218;28;20492;-77
2022/04/20 09:01:15;;;;;;;7.23;5.07;;;7.70;96.30;;;;;;5012365;28;20985;-76
2022/04/20 09:03:43;;;;;;;7.10;6.30;;;7.80;96.30;;;;;;5011961;28;20411;-76
2022/04/20 09:06:09;;;;;;;6.40;5.80;;;7.70;96.30;;;;;;4994930;28;20403;-76
2022/04/20 09:08:38;;;;;;;9.13;4.73;;;7.80;96.30;;;;;;5012119;28;20414;-76
2022/04/20 09:11:04;;;;;;;6.50;5.07;;;7.90;96.30;;;;;;4994703;28;20519;-76
2022/04/20 09:13:35;;;;;;;7.13;5.83;;;8.00;96.30;;;;;;4994661;28;20552;-76
2022/04/20 09:16:06;;;;;;;6.50;5.47;;;8.10;96.30;;;;;;5007390;28;20461;-76
2022/04/20 09:18:32;;;;;;;10.80;5.93;;;8.10;96.30;;;;;;4993038;28;20464;-77
2022/04/20 09:21:11;;;;;;;8.80;4.87;;;8.30;96.30;;;;;;4982370;28;20475;-78
2022/04/20 09:23:37;;;;;;;5.70;4.97;;;8.50;96.30;;;;;;4986445;28;20765;-76
2022/04/20 09:26:11;;;;;;;5.67;4.80;;;8.50;96.30;;;;;;5000146;28;20420;-76
2022/04/20 09:28:42;;;;;;;7.37;4.80;;;8.60;96.30;;;;;;4999115;28;20420;-76
2022/04/20 09:31:09;;;;;;;6.50;5.60;;;8.80;96.30;;;;;;5008197;28;20438;-76
2022/04/20 09:33:46;;;;;;;6.90;5.93;;;8.80;96.30;;;;;;4978989;28;20428;-76
2022/04/20 09:36:13;;;;;;;10.30;4.73;;;8.90;96.30;;;;;;5003113;28;20919;-76
2022/04/20 09:39:00;;;;;;;6.93;6.20;;;8.70;96.30;;;;;;5004245;28;20411;-76
2022/04/20 09:41:26;;;;;;;9.10;5.40;;;8.80;96.30;;;;;;4996539;28;20428;-74
2022/04/20 09:44:08;;;;;;;5.83;5.13;;;8.90;96.30;;;;;;4996769;28;20935;-74
2022/04/20 09:49:34;;;;;;;5.50;4.90;;;9.10;96.30;;;;;;4988266;28;20579;-75
2022/04/20 09:52:13;;;;;;;6.87;5.03;;;9.30;96.30;;;;;;4992230;28;20555;-75
2022/04/20 09:54:53;;;;;;;7.77;5.37;;;9.50;96.30;;;;;;4992288;28;20392;-74
2022/04/20 09:57:21;;;;;;;6.50;5.00;;;9.50;96.30;;;;;;4974776;28;20532;-74
2022/04/20 10:00:03;;;;;;;6.23;5.03;;;9.50;96.30;;;;;;4991873;28;20951;-74
2022/04/20 10:02:29;;;;;;;10.50;5.47;;;9.30;96.30;;;;;;4992527;28;20456;-73
2022/04/20 10:04:57;;;;;;;7.67;4.23;;;9.30;96.30;;;;;;4992270;28;20417;-75
2022/04/20 10:07:22;;;;;;;10.67;5.07;;;9.40;96.30;;;;;;4992616;28;20420;-74
2022/04/20 10:09:48;;;;;;;7.50;5.30;;;9.30;96.30;;;;;;4991978;28;20405;-74
2022/04/20 10:12:16;;;;;;;6.00;5.13;;;9.40;96.30;;;;;;4993160;28;20215;-77
2022/04/20 10:17:31;;;;;;;7.37;4.80;;;9.30;96.30;;;;;;5011497;28;20416;-77
2022/04/20 10:19:59;;;;;;;7.43;5.40;;;9.20;96.30;;;;;;5005852;28;20427;-77
2022/04/20 16:01:10;;;;;;;9.13;6.10;;;;;;;;;;4994500;28;20427;-75
2022/04/20 16:03:35;;;;;;;8.07;5.80;;;6.10;96.30;;;;;;4982920;28;20401;-75
2022/04/20 16:06:01;;;;;;;6.33;5.70;;;6.10;96.30;;;;;;4994918;28;20420;-75
2022/04/20 16:08:26;;;;;;;7.27;5.30;;;6.10;96.30;;;;;;4968000;28;20714;-75
2022/04/20 16:21:28;;;;;;;7.23;6.30;;;6.00;96.30;;;;;;5576322;23;20481;-78
2022/04/20 16:23:54;;;;;;;7.97;6.17;;;;;;;;;;4936122;29;20475;-75
2022/04/20 16:26:21;;;;;;;10.03;7.00;;;;;;;;;;4955422;29;20399;-74
2022/04/20 16:28:47;;;;;;;8.40;5.53;;;;;;;;;;4954550;29;20183;-78
2022/04/20 16:31:13;;;;;;;9.10;5.30;;;;;;;;;;4954857;29;20464;-78
2022/04/20 16:33:39;;;;;;;6.53;5.83;;;;;;;;;;4954464;29;20468;-79
2022/04/20 16:36:05;;;;;;;7.93;6.00;;;;;;;;;;4943123;28;20505;-80
2022/04/20 16:38:31;;;;;;;6.73;5.67;;;5.80;96.30;;;;;;4973261;28;20426;-77
2022/04/20 16:40:57;;;;;;;6.87;5.53;;;5.80;96.30;;;;;;4973787;28;20444;-76
2022/04/20 16:43:22;;;;;;;6.30;5.70;;;5.80;96.30;;;;;;4972733;28;20257;-77
2022/04/20 16:45:51;;;;;;;7.13;5.80;;;5.80;96.30;;;;;;4955880;28;20829;-77
2022/04/20 16:48:16;;;;;;;6.57;5.40;;;5.80;96.30;;;;;;4973621;28;20182;-76
2022/04/20 16:50:42;;;;;;;6.17;5.57;;;5.80;96.30;;;;;;4956206;28;20508;-74
2022/04/20 16:53:07;;;;;;;6.73;5.67;;;5.80;96.30;;;;;;4954343;29;20812;-76
2022/04/20 16:55:33;;;;;;;8.53;4.97;;;5.80;96.30;;;;;;4937205;29;20174;-76
2022/04/20 16:57:58;;;;;;;6.77;5.30;;;5.80;96.30;;;;;;4966853;28;20740;-76
2022/04/20 17:00:24;;;;;;;4.73;4.33;;;5.80;96.30;;;;;;4947578;29;20179;-76
2022/04/20 17:02:49;;;;;;;5.00;4.50;;;5.80;96.30;;;;;;4977594;28;20544;-75
2022/04/20 17:05:15;;;;;;;5.30;4.77;;;5.80;96.30;;;;;;4973730;28;20260;-75
2022/04/20 17:07:40;;;;;;;7.30;4.80;;;5.80;96.30;;;;;;4956140;28;20186;-77
2022/04/20 17:10:07;;;;;;;5.37;4.87;;;5.80;96.30;;;;;;4973650;28;20190;-77
2022/04/20 17:12:36;;;;;;;6.30;4.13;;;5.80;96.30;;;;;;4973309;28;20229;-76
2022/04/20 17:15:06;;;;;;;4.47;3.73;;;5.70;96.30;;;;;;4956016;28;20849;-77
2022/04/20 17:17:31;;;;;;;4.90;4.50;;;5.70;96.30;;;;;;4973089;28;20433;-77
2022/04/20 17:26:33;;;;;;;5.77;4.30;;;5.70;96.30;;;;;;4973219;28;20417;-77
2022/04/20 17:28:12;;;;;;;4.07;3.67;;;5.70;96.30;;;;;;4956558;29;20417;-78
2022/04/20 17:30:38;;;;;;;4.70;3.90;;;;;;;;;;4955814;29;20439;-77
2022/04/20 17:33:04;;;;;;;6.50;4.20;;;5.60;96.30;;;;;;4954508;29;20205;-78
2022/04/20 17:38:13;;;;;;;3.50;3.20;;;5.50;96.30;;;;;;4956783;29;20649;-77
2022/04/20 17:40:39;;;;;;;3.97;3.30;;;;;;;;;;4954418;29;20482;-78
2022/04/20 17:43:05;;;;;;;3.53;3.23;;;5.50;96.30;;;;;;4956753;29;20179;-77
2022/04/20 17:45:31;;;;;;;5.73;3.67;;;;;;;;;;4956687;29;20187;-80
2022/04/20 17:47:57;;;;;;;3.57;3.00;;;5.40;96.30;;;;;;4939843;29;20690;-79
2022/04/20 17:50:22;;;;;;;3.37;3.07;;;5.40;96.30;;;;;;4958639;28;20420;-80
2022/04/20 17:52:48;;;;;;;3.23;2.97;;;5.40;96.30;;;;;;4958772;28;20465;-79
2022/04/20 17:55:14;;;;;;;3.50;2.47;;;;;;;;;;4974824;28;20732;-79
2022/04/20 17:57:39;;;;;;;3.80;3.50;;;5.40;96.30;;;;;;4956999;28;20650;-80
2022/04/20 18:00:05;;;;;;;3.60;2.93;;;5.40;96.30;;;;;;4956668;28;20208;-80
2022/04/20 18:02:31;;;;;;;3.27;2.97;;;5.30;96.30;;;;;;4956126;28;20261;-79
2022/04/20 18:04:56;;;;;;;2.57;2.37;;;5.30;96.30;;;;;;4973764;28;20516;-80
2022/04/20 18:07:22;;;;;;;5.23;3.10;;;5.30;96.30;;;;;;4979277;28;20174;-77
2022/04/20 18:09:48;;;;;;;3.93;3.30;;;5.30;96.30;;;;;;4956944;28;20335;-80
2022/04/20 18:12:14;;;;;;;3.77;3.30;;;5.30;96.30;;;;;;4958197;28;20835;-78
2022/04/20 18:14:40;;;;;;;3.17;2.70;;;5.30;96.30;;;;;;4958207;28;20457;-80
2022/04/20 18:17:06;;;;;;;3.73;3.40;;;5.30;96.30;;;;;;4959442;28;20438;-80
2022/04/20 18:19:33;;;;;;;4.03;2.80;;;5.30;96.30;;;;;;4975353;28;20635;-80
2022/04/20 18:21:59;;;;;;;4.80;3.40;;;5.30;96.30;;;;;;4976929;28;20196;-80
2022/04/20 18:24:24;;;;;;;3.33;2.93;;;5.30;96.30;;;;;;4976646;28;20894;-81
2022/04/20 18:26:50;;;;;;;4.23;2.87;;;5.30;96.30;;;;;;4975713;28;20228;-78
2022/04/20 18:29:15;;;;;;;5.53;3.30;;;5.30;96.30;;;;;;4957549;28;20269;-80
2022/04/20 18:31:41;;;;;;;3.70;3.40;;;;;;;;;;4958189;28;20297;-76
2022/04/20 18:34:07;;;;;;;5.30;3.40;;;;;;;;;;4957150;28;20189;-79
2022/04/20 18:36:33;;;;;;;7.00;3.43;;;5.20;96.30;;;;;;4961188;28;20474;-80
2022/04/20 18:38:59;;;;;;;5.93;3.70;;;5.20;96.30;;;;;;4961103;28;20430;-78
2022/04/20 18:41:25;;;;;;;5.23;3.13;;;5.20;96.30;;;;;;4959804;28;20459;-78
2022/04/20 18:43:53;;;;;;;4.47;3.30;;;5.20;96.30;;;;;;4978398;28;20449;-79
2022/04/20 18:46:19;;;;;;;3.43;3.13;;;5.20;96.30;;;;;;4978530;28;20512;-78
2022/04/20 18:48:44;;;;;;;3.10;2.80;;;5.10;96.30;;;;;;4960655;28;20504;-79
2022/04/20 18:51:11;;;;;;;3.80;3.40;;;5.10;96.30;;;;;;4960118;28;20245;-83
2022/04/20 18:59:09;;;;;;;3.57;3.07;;;5.10;96.30;;;;;;4967295;28;20413;-81
2022/04/20 19:01:38;;;;;;;3.57;2.93;;;5.10;96.30;;;;;;4962777;28;20480;-81
2022/04/20 19:04:04;;;;;;;7.30;3.13;;;5.10;96.30;;;;;;4963699;28;20487;-81
2022/04/20 19:06:29;;;;;;;3.13;2.60;;;5.10;96.30;;;;;;4963821;28;20505;-81
2022/04/20 19:08:55;;;;;;;2.97;2.70;;;5.10;96.30;;;;;;4967691;28;20217;-76
2022/04/20 19:11:21;;;;;;;4.03;3.40;;;5.10;96.30;;;;;;4966864;28;20198;-80
2022/04/20 19:13:47;;;;;;;5.37;4.10;;;5.10;96.30;;;;;;4964579;28;20245;-79
2022/04/20 19:16:12;;;;;;;5.47;4.40;;;;;;;;;;4981839;28;20409;-78
2022/04/20 19:18:38;;;;;;;4.23;3.83;;;5.10;96.30;;;;;;4966434;28;20249;-79
2022/04/20 19:21:05;;;;;;;4.57;3.40;;;5.10;96.30;;;;;;4985113;28;20254;-79
2022/04/20 19:23:31;;;;;;;4.10;3.70;;;5.10;96.30;;;;;;4968299;28;20553;-78
2022/04/20 19:25:58;;;;;;;5.27;3.67;;;5.10;96.30;;;;;;4968368;28;20493;-79
2022/04/20 19:28:26;;;;;;;4.43;4.03;;;5.10;96.30;;;;;;4966061;28;20566;-80
2022/04/20 19:30:51;;;;;;;4.30;3.90;;;5.20;96.30;;;;;;4982591;28;20433;-79
2022/04/20 19:33:18;;;;;;;5.60;3.53;;;5.20;96.30;;;;;;4983558;28;21000;-78
2022/04/20 19:35:43;;;;;;;6.17;4.50;;;5.10;96.30;;;;;;4968187;28;20178;-79
2022/04/20 19:38:09;;;;;;;5.57;4.23;;;5.10;96.30;;;;;;4967536;28;20425;-79
2022/04/20 19:40:35;;;;;;;6.00;4.50;;;5.10;96.30;;;;;;4984572;28;20217;-80
2022/04/20 19:43:02;;;;;;;5.00;4.20;;;5.10;96.30;;;;;;4985087;28;20175;-79
2022/04/20 19:45:28;;;;;;;5.90;4.70;;;5.10;96.30;;;;;;4967233;28;20186;-80
2022/04/20 19:47:55;;;;;;;8.83;5.73;;;5.10;96.30;;;;;;4968259;28;20433;-79
2022/04/20 19:50:21;;;;;;;9.70;6.70;;;5.10;96.30;;;;;;4968850;28;20787;-81
2022/04/20 19:52:46;;;;;;;5.47;4.70;;;5.10;96.30;;;;;;4965056;28;20493;-79
2022/04/20 19:55:12;;;;;;;9.73;5.63;;;5.10;96.30;;;;;;4982140;28;20174;-79
2022/04/20 19:57:38;;;;;;;5.93;4.67;;;5.10;96.30;;;;;;4965319;28;20526;-80
2022/04/20 20:00:05;;;;;;;4.27;3.90;;;5.10;96.30;;;;;;4982796;28;20177;-79
2022/04/20 20:02:31;;;;;;;6.40;4.50;;;5.10;96.30;;;;;;4964318;28;20831;-80
2022/04/20 20:04:57;;;;;;;3.97;3.57;;;5.10;96.30;;;;;;4964162;28;20425;-80
2022/04/20 20:07:22;;;;;;;4.47;4.07;;;5.10;96.30;;;;;;4962918;28;20797;-81
2022/04/20 20:09:48;;;;;;;4.97;4.17;;;5.10;96.30;;;;;;4981002;28;20248;-81
2022/04/20 20:12:19;;;;;;;5.47;4.10;;;5.10;96.30;;;;;;4963404;28;20209;-81
2022/04/20 20:14:44;;;;;;;4.53;4.07;;;5.10;96.30;;;;;;4965140;28;20202;-78
2022/04/20 20:17:10;;;;;;;5.20;4.70;;;5.10;96.30;;;;;;4982273;28;20920;-81
2022/04/20 20:19:36;;;;;;;4.50;3.90;;;5.10;96.30;;;;;;4965221;28;20190;-81
2022/04/20 20:22:01;;;;;;;7.77;3.97;;;5.10;96.30;;;;;;4964303;28;20688;-79
2022/04/20 20:30:03;;;;;;;8.73;4.10;;;5.00;96.30;;;;;;4982310;28;20413;-79
2022/04/20 20:32:33;;;;;;;3.93;3.63;;;5.00;96.30;;;;;;4980681;28;20460;-79
2022/04/20 20:34:58;;;;;;;3.77;3.47;;;5.00;96.30;;;;;;4980630;28;20405;-81
2022/04/20 20:37:24;;;;;;;3.77;3.47;;;5.00;96.30;;;;;;4980279;28;20752;-81
2022/04/20 20:39:49;;;;;;;4.40;3.30;;;5.00;96.30;;;;;;4982078;28;20178;-81
2022/04/20 20:42:15;;;;;;;4.00;3.60;;;5.00;96.30;;;;;;4964779;28;20194;-81
2022/04/20 20:44:40;;;;;;;3.70;3.20;;;5.00;96.30;;;;;;4982220;28;20182;-81
2022/04/20 20:47:07;;;;;;;3.93;3.43;;;5.00;96.30;;;;;;4966414;28;20225;-80
2022/04/20 20:52:17;;;;;;;3.63;3.20;;;5.00;96.30;;;;;;4983165;28;20484;-80
2022/04/20 20:54:43;;;;;;;3.20;2.90;;;4.90;96.30;;;;;;4980613;28;20402;-80
2022/04/20 20:57:12;;;;;;;4.07;3.23;;;4.90;96.30;;;;;;4982200;28;20261;-81
2022/04/20 20:59:38;;;;;;;3.70;3.40;;;4.90;96.30;;;;;;4963777;28;20829;-78
2022/04/20 21:02:04;;;;;;;3.93;3.53;;;4.90;96.30;;;;;;4963286;28;20443;-81
2022/04/20 21:04:30;;;;;;;48.13;23.80;;;4.90;96.30;;;;;;4979661;28;20201;-79
2022/04/20 21:06:56;;;;;;;13.77;8.10;;;4.90;96.30;;;;;;4963977;28;20410;-81
2022/04/20 21:09:22;;;;;;;6.90;3.87;;;4.90;96.30;;;;;;4964634;28;20269;-80
2022/04/20 21:11:48;;;;;;;3.33;3.00;;;4.90;96.30;;;;;;4981743;28;20344;-79
2022/04/20 21:14:14;;;;;;;4.40;3.90;;;4.90;96.30;;;;;;4981635;28;20166;-80
2022/04/20 21:16:39;;;;;;;5.63;4.03;;;4.90;96.30;;;;;;4964317;28;20760;-80
2022/04/20 21:19:06;;;;;;;5.63;3.43;;;4.90;96.30;;;;;;4982688;28;20264;-80
2022/04/20 21:21:35;;;;;;;4.67;3.60;;;4.90;96.30;;;;;;4965019;28;20206;-80
2022/04/20 21:24:05;;;;;;;3.80;3.50;;;4.90;96.30;;;;;;4981621;28;20473;-80
2022/04/20 21:26:36;;;;;;;5.03;3.80;;;4.90;96.30;;;;;;4978895;28;20485;-80
2022/04/20 21:29:03;;;;;;;4.63;4.20;;;4.90;96.30;;;;;;4960886;28;20413;-81
2022/04/20 21:31:29;;;;;;;4.47;4.07;;;4.90;96.30;;;;;;4979057;28;20467;-80
2022/04/20 21:33:54;;;;;;;4.97;3.87;;;4.90;96.30;;;;;;4961299;28;20464;-81
2022/04/20 21:36:20;;;;;;;5.63;4.00;;;4.90;96.30;;;;;;4978844;28;20422;-80
2022/04/20 21:38:45;;;;;;;6.20;4.20;;;5.00;96.30;;;;;;4960704;28;20237;-81
2022/04/20 21:41:11;;;;;;;5.43;3.80;;;5.00;96.30;;;;;;4961602;28;20209;-81
2022/04/20 21:43:37;;;;;;;4.90;4.50;;;5.00;96.30;;;;;;4964154;28;20192;-82
2022/04/20 21:46:03;;;;;;;7.60;4.57;;;5.00;96.30;;;;;;4964980;28;20516;-81
2022/04/20 21:48:32;;;;;;;20.07;13.30;;;5.00;96.30;;;;;;4963300;28;20174;-79
2022/04/20 21:50:58;;;;;;;7.03;4.80;;;5.00;96.30;;;;;;4963637;28;20524;-79
2022/04/20 21:53:24;;;;;;;10.50;8.53;;;5.00;96.30;;;;;;4962579;28;20528;-79
2022/04/20 21:55:51;;;;;;;12.87;9.40;;;5.10;96.30;;;;;;4953236;29;21015;-76
2022/04/20 21:58:18;;;;;;;11.63;5.10;;;5.10;96.30;;;;;;4953216;28;20175;-76
2022/04/20 22:00:54;;;;;;;6.07;4.20;;;5.10;96.30;;;;;;4953749;28;20902;-76
2022/04/20 22:09:21;;;;;;;4.20;3.80;;;5.10;96.30;;;;;;4958894;28;20402;-80
